sensor_id;sensor_type;location;lat;lon;timestamp;pressure;altitude;pressure_sealevel;temperature;humidity
21728;BME280;11026;50.560;17.852;2023-05-09T00:00:15;100640.66;;;3.70;90.01
21728;BME280;11026;50.560;17.852;2023-05-09T00:02:43;100633.69;;;3.73;90.72
21728;BME280;11026;50.560;17.852;2023-05-09T00:05:14;100628.44;;;3.68;90.84
21728;BME280;11026;50.560;17.852;2023-05-09T00:07:42;100631.06;;;3.74;90.49
21728;BME280;11026;50.560;17.852;2023-05-09T00:10:10;100631.06;;;3.76;90.04
21728;BME280;11026;50.560;17.852;2023-05-09T00:12:38;100624.97;;;3.69;89.89
21728;BME280;11026;50.560;17.852;2023-05-09T00:15:06;100627.56;;;3.70;89.40
21728;BME280;11026;50.560;17.852;2023-05-09T00:17:34;100617.09;;;3.72;89.27
21728;BME280;11026;50.560;17.852;2023-05-09T00:20:03;100621.47;;;3.70;89.09
21728;BME280;11026;50.560;17.852;2023-05-09T00:22:35;100614.50;;;3.64;88.85
21728;BME280;11026;50.560;17.852;2023-05-09T00:25:03;100615.34;;;3.62;89.15
21728;BME280;11026;50.560;17.852;2023-05-09T00:27:37;100612.75;;;3.57;89.89
21728;BME280;11026;50.560;17.852;2023-05-09T00:30:11;100616.19;;;3.52;90.74
21728;BME280;11026;50.560;17.852;2023-05-09T00:32:39;100605.75;;;3.56;91.49
21728;BME280;11026;50.560;17.852;2023-05-09T00:35:08;100605.75;;;3.50;91.71
21728;BME280;11026;50.560;17.852;2023-05-09T00:37:36;100606.59;;;3.43;91.85
21728;BME280;11026;50.560;17.852;2023-05-09T00:40:04;100600.50;;;3.50;91.73
21728;BME280;11026;50.560;17.852;2023-05-09T00:42:32;100599.66;;;3.53;91.57
21728;BME280;11026;50.560;17.852;2023-05-09T00:45:06;100600.50;;;3.41;91.12
21728;BME280;11026;50.560;17.852;2023-05-09T00:47:40;100597.00;;;3.43;91.76
21728;BME280;11026;50.560;17.852;2023-05-09T00:50:08;100598.72;;;3.40;92.07
21728;BME280;11026;50.560;17.852;2023-05-09T00:52:36;100597.81;;;3.24;92.65
21728;BME280;11026;50.560;17.852;2023-05-09T00:55:04;100592.59;;;3.23;93.52
21728;BME280;11026;50.560;17.852;2023-05-09T00:57:35;100595.25;;;3.29;93.63
21728;BME280;11026;50.560;17.852;2023-05-09T01:00:03;100595.19;;;3.10;93.67
21728;BME280;11026;50.560;17.852;2023-05-09T01:02:31;100599.25;;;2.53;94.54
21728;BME280;11026;50.560;17.852;2023-05-09T01:05:00;100599.25;;;2.45;96.14
21728;BME280;11026;50.560;17.852;2023-05-09T01:08:02;100595.75;;;2.46;96.78
21728;BME280;11026;50.560;17.852;2023-05-09T01:10:45;100592.06;;;2.14;98.78
21728;BME280;11026;50.560;17.852;2023-05-09T01:13:26;100586.84;;;2.14;100.00
21728;BME280;11026;50.560;17.852;2023-05-09T01:16:05;100580.97;;;2.50;100.00
21728;BME280;11026;50.560;17.852;2023-05-09T01:21:28;100576.75;;;2.74;97.30
21728;BME280;11026;50.560;17.852;2023-05-09T01:29:47;100575.91;;;2.78;96.80
21728;BME280;11026;50.560;17.852;2023-05-09T01:32:23;100579.25;;;2.55;96.43
21728;BME280;11026;50.560;17.852;2023-05-09T01:35:01;100577.22;;;2.08;97.81
21728;BME280;11026;50.560;17.852;2023-05-09T01:37:35;100575.41;;;1.95;99.84
21728;BME280;11026;50.560;17.852;2023-05-09T01:40:13;100585.63;;;1.73;100.00
21728;BME280;11026;50.560;17.852;2023-05-09T01:42:46;100579.47;;;1.65;100.00
21728;BME280;11026;50.560;17.852;2023-05-09T01:45:15;100581.91;;;1.44;100.00
21728;BME280;11026;50.560;17.852;2023-05-09T01:47:45;100571.25;;;1.22;100.00
21728;BME280;11026;50.560;17.852;2023-05-09T01:50:17;100570.38;;;1.22;100.00
21728;BME280;11026;50.560;17.852;2023-05-09T01:52:47;100565.63;;;1.71;100.00
21728;BME280;11026;50.560;17.852;2023-05-09T01:55:18;100563.16;;;1.89;100.00
21728;BME280;11026;50.560;17.852;2023-05-09T01:57:48;100550.97;;;1.90;100.00
21728;BME280;11026;50.560;17.852;2023-05-09T02:00:17;100556.22;;;1.93;100.00
21728;BME280;11026;50.560;17.852;2023-05-09T02:02:45;100557.09;;;1.92;100.00
21728;BME280;11026;50.560;17.852;2023-05-09T02:05:13;100558.06;;;2.05;100.00
21728;BME280;11026;50.560;17.852;2023-05-09T02:07:42;100561.63;;;2.20;100.00
21728;BME280;11026;50.560;17.852;2023-05-09T02:10:11;100552.09;;;2.26;100.00
21728;BME280;11026;50.560;17.852;2023-05-09T02:12:41;100546.94;;;2.36;100.00
21728;BME280;11026;50.560;17.852;2023-05-09T02:15:08;100554.00;;;2.53;100.00
21728;BME280;11026;50.560;17.852;2023-05-09T02:17:42;100553.16;;;2.64;100.00
21728;BME280;11026;50.560;17.852;2023-05-09T02:20:10;100555.78;;;2.61;100.00
21728;BME280;11026;50.560;17.852;2023-05-09T02:22:39;100552.25;;;2.53;99.21
21728;BME280;11026;50.560;17.852;2023-05-09T02:25:11;100551.38;;;2.57;99.71
21728;BME280;11026;50.560;17.852;2023-05-09T02:27:44;100553.25;;;2.74;100.00
21728;BME280;11026;50.560;17.852;2023-05-09T02:30:19;100548.00;;;2.77;100.00
21728;BME280;11026;50.560;17.852;2023-05-09T02:32:52;100540.19;;;2.87;100.00
21728;BME280;11026;50.560;17.852;2023-05-09T02:35:21;100544.50;;;2.71;100.00
21728;BME280;11026;50.560;17.852;2023-05-09T02:37:52;100544.53;;;2.81;100.00
21728;BME280;11026;50.560;17.852;2023-05-09T02:40:21;100544.50;;;2.70;100.00
21728;BME280;11026;50.560;17.852;2023-05-09T02:42:48;100542.75;;;2.72;100.00
21728;BME280;11026;50.560;17.852;2023-05-09T02:45:16;100541.84;;;2.62;100.00
21728;BME280;11026;50.560;17.852;2023-05-09T02:47:45;100534.91;;;2.69;100.00
21728;BME280;11026;50.560;17.852;2023-05-09T02:50:13;100541.91;;;2.75;100.00
21728;BME280;11026;50.560;17.852;2023-05-09T02:52:41;100542.78;;;2.78;100.00
21728;BME280;11026;50.560;17.852;2023-05-09T02:55:10;100544.53;;;2.78;100.00
21728;BME280;11026;50.560;17.852;2023-05-09T02:57:40;100546.28;;;2.82;100.00
21728;BME280;11026;50.560;17.852;2023-05-09T03:00:08;100540.22;;;2.86;100.00
21728;BME280;11026;50.560;17.852;2023-05-09T03:02:36;100548.03;;;2.89;100.00
21728;BME280;11026;50.560;17.852;2023-05-09T03:05:04;100540.19;;;2.87;100.00
21728;BME280;11026;50.560;17.852;2023-05-09T03:07:32;100541.97;;;2.90;100.00
21728;BME280;11026;50.560;17.852;2023-05-09T03:10:00;100530.63;;;2.91;100.00
21728;BME280;11026;50.560;17.852;2023-05-09T03:12:27;100539.34;;;2.87;100.00
21728;BME280;11026;50.560;17.852;2023-05-09T03:14:55;100528.91;;;2.90;100.00
21728;BME280;11026;50.560;17.852;2023-05-09T03:17:22;100533.25;;;2.86;100.00
21728;BME280;11026;50.560;17.852;2023-05-09T03:19:49;100525.44;;;2.97;100.00
21728;BME280;11026;50.560;17.852;2023-05-09T03:22:17;100533.25;;;2.94;100.00
21728;BME280;11026;50.560;17.852;2023-05-09T03:24:45;100530.66;;;3.00;100.00
21728;BME280;11026;50.560;17.852;2023-05-09T03:27:13;100535.84;;;2.91;100.00
21728;BME280;11026;50.560;17.852;2023-05-09T03:29:40;100536.72;;;2.91;100.00
21728;BME280;11026;50.560;17.852;2023-05-09T03:32:09;100537.63;;;2.95;100.00
21728;BME280;11026;50.560;17.852;2023-05-09T03:34:38;100529.81;;;3.07;100.00
21728;BME280;11026;50.560;17.852;2023-05-09T03:37:06;100534.16;;;3.08;100.00
21728;BME280;11026;50.560;17.852;2023-05-09T03:39:35;100541.16;;;3.09;100.00
21728;BME280;11026;50.560;17.852;2023-05-09T03:42:05;100535.06;;;3.23;100.00
21728;BME280;11026;50.560;17.852;2023-05-09T03:44:33;100542.06;;;3.25;100.00
21728;BME280;11026;50.560;17.852;2023-05-09T03:47:01;100538.56;;;3.32;100.00
21728;BME280;11026;50.560;17.852;2023-05-09T03:49:30;100534.22;;;3.43;100.00
21728;BME280;11026;50.560;17.852;2023-05-09T03:51:57;100534.25;;;3.45;100.00
21728;BME280;11026;50.560;17.852;2023-05-09T03:54:25;100535.09;;;3.52;100.00
21728;BME280;11026;50.560;17.852;2023-05-09T03:56:52;100541.22;;;3.46;100.00
21728;BME280;11026;50.560;17.852;2023-05-09T03:59:20;100536.84;;;3.43;100.00
21728;BME280;11026;50.560;17.852;2023-05-09T04:01:47;100538.59;;;3.55;100.00
21728;BME280;11026;50.560;17.852;2023-05-09T04:04:17;100529.88;;;3.59;100.00
21728;BME280;11026;50.560;17.852;2023-05-09T04:06:54;100533.34;;;3.72;100.00
21728;BME280;11026;50.560;17.852;2023-05-09T04:09:22;100528.13;;;3.70;100.00
21728;BME280;11026;50.560;17.852;2023-05-09T04:11:55;100524.66;;;3.78;100.00
21728;BME280;11026;50.560;17.852;2023-05-09T04:14:23;100527.25;;;3.93;100.00
21728;BME280;11026;50.560;17.852;2023-05-09T04:16:50;100523.75;;;3.97;100.00
21728;BME280;11026;50.560;17.852;2023-05-09T04:19:18;100530.72;;;4.01;99.75
21728;BME280;11026;50.560;17.852;2023-05-09T04:21:47;100529.81;;;4.11;99.67
21728;BME280;11026;50.560;17.852;2023-05-09T04:24:16;100527.22;;;4.14;99.42
21728;BME280;11026;50.560;17.852;2023-05-09T04:26:44;100528.09;;;4.13;99.67
21728;BME280;11026;50.560;17.852;2023-05-09T04:29:14;100526.31;;;4.26;99.42
21728;BME280;11026;50.560;17.852;2023-05-09T04:31:41;100527.16;;;4.31;98.82
21728;BME280;11026;50.560;17.852;2023-05-09T04:34:09;100527.19;;;4.33;98.85
21728;BME280;11026;50.560;17.852;2023-05-09T04:36:36;100523.63;;;4.46;98.60
21728;BME280;11026;50.560;17.852;2023-05-09T04:39:03;100525.38;;;4.50;98.17
21728;BME280;11026;50.560;17.852;2023-05-09T04:41:34;100522.72;;;4.59;97.94
21728;BME280;11026;50.560;17.852;2023-05-09T04:44:01;100523.50;;;4.80;97.59
21728;BME280;11026;50.560;17.852;2023-05-09T04:46:29;100525.25;;;4.84;96.59
21728;BME280;11026;50.560;17.852;2023-05-09T04:48:56;100527.78;;;4.96;95.62
21728;BME280;11026;50.560;17.852;2023-05-09T04:51:24;100518.16;;;5.01;95.38
21728;BME280;11026;50.560;17.852;2023-05-09T04:53:52;100521.66;;;5.03;95.25
21728;BME280;11026;50.560;17.852;2023-05-09T04:56:19;100518.94;;;5.17;95.17
21728;BME280;11026;50.560;17.852;2023-05-09T04:58:47;100518.91;;;5.22;94.80
21728;BME280;11026;50.560;17.852;2023-05-09T05:01:15;100522.31;;;5.36;94.47
21728;BME280;11026;50.560;17.852;2023-05-09T05:03:42;100522.28;;;5.40;94.59
21728;BME280;11026;50.560;17.852;2023-05-09T05:06:13;100518.75;;;5.43;93.77
21728;BME280;11026;50.560;17.852;2023-05-09T05:08:40;100520.41;;;5.53;93.94
21728;BME280;11026;50.560;17.852;2023-05-09T05:11:08;100508.91;;;5.70;93.89
21728;BME280;11026;50.560;17.852;2023-05-09T05:13:35;100518.53;;;5.72;92.42
21728;BME280;11026;50.560;17.852;2023-05-09T05:16:03;100516.66;;;5.82;92.71
21728;BME280;11026;50.560;17.852;2023-05-09T05:18:32;100522.75;;;5.90;92.57
21728;BME280;11026;50.560;17.852;2023-05-09T05:21:00;100518.28;;;6.01;92.13
21728;BME280;11026;50.560;17.852;2023-05-09T05:23:27;100522.56;;;6.11;91.90
21728;BME280;11026;50.560;17.852;2023-05-09T05:25:55;100514.53;;;6.25;91.69
21728;BME280;11026;50.560;17.852;2023-05-09T05:28:24;100510.94;;;6.32;91.43
21728;BME280;11026;50.560;17.852;2023-05-09T05:30:51;100515.16;;;6.50;91.04
21728;BME280;11026;50.560;17.852;2023-05-09T05:33:19;100513.28;;;6.57;90.72
21728;BME280;11026;50.560;17.852;2023-05-09T05:35:48;100502.63;;;6.71;90.68
21728;BME280;11026;50.560;17.852;2023-05-09T05:38:15;100500.66;;;6.85;89.86
21728;BME280;11026;50.560;17.852;2023-05-09T05:40:43;100500.56;;;6.94;89.39
21728;BME280;11026;50.560;17.852;2023-05-09T05:43:11;100506.59;;;7.02;89.20
21728;BME280;11026;50.560;17.852;2023-05-09T05:45:40;100500.06;;;7.29;90.24
21728;BME280;11026;50.560;17.852;2023-05-09T05:48:07;100498.28;;;7.30;88.45
21728;BME280;11026;50.560;17.852;2023-05-09T05:50:35;100496.28;;;7.44;87.41
21728;BME280;11026;50.560;17.852;2023-05-09T05:53:02;100494.16;;;7.68;87.24
21728;BME280;11026;50.560;17.852;2023-05-09T05:55:30;100482.53;;;7.81;86.62
21728;BME280;11026;50.560;17.852;2023-05-09T05:57:57;100480.63;;;7.89;85.78
21728;BME280;11026;50.560;17.852;2023-05-09T06:00:24;100476.84;;;8.04;85.37
21728;BME280;11026;50.560;17.852;2023-05-09T06:02:52;100489.75;;;8.18;84.76
21728;BME280;11026;50.560;17.852;2023-05-09T06:05:20;100488.44;;;8.42;83.25
21728;BME280;11026;50.560;17.852;2023-05-09T06:07:49;100483.78;;;8.54;83.73
21728;BME280;11026;50.560;17.852;2023-05-09T06:10:17;100477.22;;;8.74;81.65
21728;BME280;11026;50.560;17.852;2023-05-09T06:12:44;100471.66;;;8.88;81.94
21728;BME280;11026;50.560;17.852;2023-05-09T06:15:13;100478.28;;;9.07;79.76
21728;BME280;11026;50.560;17.852;2023-05-09T06:17:41;100465.66;;;9.18;77.75
21728;BME280;11026;50.560;17.852;2023-05-09T06:20:08;100464.75;;;9.21;76.87
21728;BME280;11026;50.560;17.852;2023-05-09T06:22:36;100466.84;;;9.42;77.66
21728;BME280;11026;50.560;17.852;2023-05-09T06:25:03;100468.44;;;9.51;74.47
21728;BME280;11026;50.560;17.852;2023-05-09T06:27:33;100463.69;;;9.64;74.94
21728;BME280;11026;50.560;17.852;2023-05-09T06:30:02;100460.81;;;9.73;73.47
21728;BME280;11026;50.560;17.852;2023-05-09T06:32:49;100465.88;;;9.82;71.97
21728;BME280;11026;50.560;17.852;2023-05-09T06:35:17;100463.47;;;10.05;71.53
21728;BME280;11026;50.560;17.852;2023-05-09T06:37:44;100463.44;;;10.07;69.33
21728;BME280;11026;50.560;17.852;2023-05-09T06:40:15;100463.25;;;10.13;69.09
21728;BME280;11026;50.560;17.852;2023-05-09T06:42:44;100462.75;;;10.33;70.76
21728;BME280;11026;50.560;17.852;2023-05-09T06:45:11;100456.22;;;10.45;67.41
21728;BME280;11026;50.560;17.852;2023-05-09T06:47:39;100445.56;;;10.49;66.88
21728;BME280;11026;50.560;17.852;2023-05-09T06:50:07;100447.19;;;10.53;65.85
21728;BME280;11026;50.560;17.852;2023-05-09T06:52:35;100444.50;;;10.55;64.89
21728;BME280;11026;50.560;17.852;2023-05-09T06:55:04;100438.97;;;10.63;64.79
21728;BME280;11026;50.560;17.852;2023-05-09T06:57:31;100439.53;;;10.74;65.51
21728;BME280;11026;50.560;17.852;2023-05-09T07:00:00;100447.66;;;10.96;65.26
21728;BME280;11026;50.560;17.852;2023-05-09T07:02:27;100437.75;;;11.02;64.61
21728;BME280;11026;50.560;17.852;2023-05-09T07:04:55;100442.75;;;11.12;65.13
21728;BME280;11026;50.560;17.852;2023-05-09T07:07:22;100436.50;;;11.14;63.36
21728;BME280;11026;50.560;17.852;2023-05-09T07:09:50;100437.97;;;11.23;62.99
21728;BME280;11026;50.560;17.852;2023-05-09T07:12:26;100428.75;;;11.08;62.45
21728;BME280;11026;50.560;17.852;2023-05-09T07:14:53;100430.50;;;11.09;63.32
21728;BME280;11026;50.560;17.852;2023-05-09T07:17:20;100435.28;;;10.96;61.75
21728;BME280;11026;50.560;17.852;2023-05-09T07:19:50;100437.59;;;11.07;62.83
21728;BME280;11026;50.560;17.852;2023-05-09T07:22:17;100428.63;;;11.39;64.72
21728;BME280;11026;50.560;17.852;2023-05-09T07:24:47;100423.16;;;11.44;60.73
21728;BME280;11026;50.560;17.852;2023-05-09T07:27:15;100416.56;;;11.55;60.68
21728;BME280;11026;50.560;17.852;2023-05-09T07:29:44;100430.56;;;11.61;59.48
21728;BME280;11026;50.560;17.852;2023-05-09T07:32:11;100423.22;;;11.69;59.67
21728;BME280;11026;50.560;17.852;2023-05-09T07:34:40;100415.25;;;11.69;58.87
21728;BME280;11026;50.560;17.852;2023-05-09T07:37:07;100409.03;;;11.70;58.31
21728;BME280;11026;50.560;17.852;2023-05-09T07:39:34;100414.53;;;11.90;59.53
21728;BME280;11026;50.560;17.852;2023-05-09T07:42:02;100413.44;;;12.21;58.27
21728;BME280;11026;50.560;17.852;2023-05-09T07:44:29;100422.09;;;12.26;57.71
21728;BME280;11026;50.560;17.852;2023-05-09T07:46:57;100405.22;;;12.27;57.10
21728;BME280;11026;50.560;17.852;2023-05-09T07:49:28;100405.81;;;12.35;57.43
21728;BME280;11026;50.560;17.852;2023-05-09T07:51:56;100392.16;;;12.46;57.14
21728;BME280;11026;50.560;17.852;2023-05-09T07:54:24;100398.78;;;12.58;57.15
21728;BME280;11026;50.560;17.852;2023-05-09T07:56:51;100387.47;;;12.52;55.49
21728;BME280;11026;50.560;17.852;2023-05-09T07:59:20;100378.22;;;12.63;55.52
21728;BME280;11026;50.560;17.852;2023-05-09T08:01:47;100378.38;;;12.60;54.67
21728;BME280;11026;50.560;17.852;2023-05-09T08:04:23;100377.78;;;12.75;54.83
21728;BME280;11026;50.560;17.852;2023-05-09T08:06:56;100390.34;;;12.70;54.03
21728;BME280;11026;50.560;17.852;2023-05-09T08:09:25;100372.88;;;12.86;54.67
21728;BME280;11026;50.560;17.852;2023-05-09T08:12:11;100355.16;;;13.09;55.14
21728;BME280;11026;50.560;17.852;2023-05-09T08:14:45;100377.44;;;13.04;52.86
21728;BME280;11026;50.560;17.852;2023-05-09T08:17:13;100363.94;;;13.11;52.82
21728;BME280;11026;50.560;17.852;2023-05-09T08:19:40;100362.94;;;13.13;52.85
21728;BME280;11026;50.560;17.852;2023-05-09T08:22:08;100373.78;;;13.31;52.88
21728;BME280;11026;50.560;17.852;2023-05-09T08:24:35;100368.56;;;13.27;53.81
21728;BME280;11026;50.560;17.852;2023-05-09T08:27:02;100369.03;;;13.37;53.03
21728;BME280;11026;50.560;17.852;2023-05-09T08:29:30;100362.81;;;13.59;53.24
21728;BME280;11026;50.560;17.852;2023-05-09T08:31:58;100369.97;;;13.77;52.52
21728;BME280;11026;50.560;17.852;2023-05-09T08:34:26;100367.47;;;13.74;51.31
21728;BME280;11026;50.560;17.852;2023-05-09T08:37:01;100364.09;;;13.70;51.29
21728;BME280;11026;50.560;17.852;2023-05-09T08:39:30;100353.03;;;13.80;52.14
21728;BME280;11026;50.560;17.852;2023-05-09T08:42:01;100357.88;;;13.90;52.30
21728;BME280;11026;50.560;17.852;2023-05-09T08:44:34;100345.75;;;14.03;52.36
21728;BME280;11026;50.560;17.852;2023-05-09T08:47:03;100353.97;;;14.37;53.10
21728;BME280;11026;50.560;17.852;2023-05-09T08:49:30;100338.66;;;14.61;51.51
21728;BME280;11026;50.560;17.852;2023-05-09T08:51:59;100337.81;;;14.41;49.96
21728;BME280;11026;50.560;17.852;2023-05-09T08:54:27;100339.53;;;14.42;50.66
21728;BME280;11026;50.560;17.852;2023-05-09T08:56:56;100334.16;;;14.63;50.46
21728;BME280;11026;50.560;17.852;2023-05-09T08:59:25;100323.75;;;14.75;50.75
21728;BME280;11026;50.560;17.852;2023-05-09T09:01:53;100335.25;;;14.59;49.46
21728;BME280;11026;50.560;17.852;2023-05-09T09:04:21;100332.69;;;14.74;50.04
21728;BME280;11026;50.560;17.852;2023-05-09T09:06:49;100319.16;;;14.96;50.18
21728;BME280;11026;50.560;17.852;2023-05-09T09:09:18;100327.69;;;15.22;50.17
21728;BME280;11026;50.560;17.852;2023-05-09T09:11:47;100322.69;;;15.33;48.42
21728;BME280;11026;50.560;17.852;2023-05-09T09:14:19;100314.03;;;15.45;48.36
21728;BME280;11026;50.560;17.852;2023-05-09T09:16:50;100322.81;;;15.82;47.70
21728;BME280;11026;50.560;17.852;2023-05-09T09:19:21;100310.75;;;15.58;46.90
21728;BME280;11026;50.560;17.852;2023-05-09T09:21:52;100314.25;;;15.93;49.46
21728;BME280;11026;50.560;17.852;2023-05-09T09:24:22;100303.59;;;16.09;47.20
21728;BME280;11026;50.560;17.852;2023-05-09T09:26:55;100298.63;;;16.34;47.79
21728;BME280;11026;50.560;17.852;2023-05-09T09:29:24;100305.44;;;16.40;48.00
21728;BME280;11026;50.560;17.852;2023-05-09T09:31:54;100295.25;;;16.62;47.26
21728;BME280;11026;50.560;17.852;2023-05-09T09:34:22;100292.25;;;16.53;44.24
21728;BME280;11026;50.560;17.852;2023-05-09T09:36:50;100286.56;;;16.27;43.48
21728;BME280;11026;50.560;17.852;2023-05-09T09:39:17;100298.63;;;16.50;44.62
21728;BME280;11026;50.560;17.852;2023-05-09T09:41:45;100285.72;;;16.74;45.06
21728;BME280;11026;50.560;17.852;2023-05-09T09:44:17;100294.53;;;17.06;44.66
21728;BME280;11026;50.560;17.852;2023-05-09T09:46:52;100291.81;;;17.22;42.50
21728;BME280;11026;50.560;17.852;2023-05-09T09:49:22;100286.88;;;17.00;41.49
21728;BME280;11026;50.560;17.852;2023-05-09T09:51:53;100281.53;;;17.00;42.41
21728;BME280;11026;50.560;17.852;2023-05-09T09:54:24;100288.44;;;17.34;42.59
21728;BME280;11026;50.560;17.852;2023-05-09T09:56:59;100282.28;;;17.32;43.03
21728;BME280;11026;50.560;17.852;2023-05-09T09:59:28;100283.88;;;17.65;42.99
21728;BME280;11026;50.560;17.852;2023-05-09T10:01:57;100266.03;;;17.80;42.46
21728;BME280;11026;50.560;17.852;2023-05-09T10:04:28;100276.16;;;18.03;42.63
21728;BME280;11026;50.560;17.852;2023-05-09T10:06:58;100275.50;;;18.14;40.81
21728;BME280;11026;50.560;17.852;2023-05-09T10:09:27;100275.03;;;18.07;39.74
21728;BME280;11026;50.560;17.852;2023-05-09T10:11:55;100267.38;;;18.01;40.81
21728;BME280;11026;50.560;17.852;2023-05-09T10:14:25;100264.22;;;17.94;39.18
21728;BME280;11026;50.560;17.852;2023-05-09T10:16:56;100270.66;;;17.48;40.45
21728;BME280;11026;50.560;17.852;2023-05-09T10:19:25;100269.34;;;17.69;39.47
21728;BME280;11026;50.560;17.852;2023-05-09T10:21:57;100263.44;;;17.92;39.36
21728;BME280;11026;50.560;17.852;2023-05-09T10:25:01;100249.66;;;18.27;40.25
21728;BME280;11026;50.560;17.852;2023-05-09T10:27:30;100249.75;;;18.53;38.96
21728;BME280;11026;50.560;17.852;2023-05-09T10:30:06;100226.81;;;18.49;38.96
21728;BME280;11026;50.560;17.852;2023-05-09T10:32:53;100239.50;;;18.74;38.61
21728;BME280;11026;50.560;17.852;2023-05-09T10:35:28;100237.44;;;19.17;39.08
21728;BME280;11026;50.560;17.852;2023-05-09T10:37:56;100240.00;;;18.52;37.36
21728;BME280;11026;50.560;17.852;2023-05-09T10:40:26;100241.06;;;18.22;37.99
21728;BME280;11026;50.560;17.852;2023-05-09T10:42:55;100240.28;;;18.20;38.58
21728;BME280;11026;50.560;17.852;2023-05-09T10:45:22;100235.19;;;18.57;38.43
21728;BME280;11026;50.560;17.852;2023-05-09T10:47:50;100224.06;;;18.36;38.35
21728;BME280;11026;50.560;17.852;2023-05-09T10:50:19;100237.41;;;18.23;38.84
21728;BME280;11026;50.560;17.852;2023-05-09T10:53:03;100224.94;;;17.95;37.79
21728;BME280;11026;50.560;17.852;2023-05-09T10:58:18;100216.81;;;18.38;39.33
21728;BME280;11026;50.560;17.852;2023-05-09T11:00:51;100211.84;;;18.73;38.70
21728;BME280;11026;50.560;17.852;2023-05-09T11:03:27;100213.53;;;19.27;39.62
21728;BME280;11026;50.560;17.852;2023-05-09T11:05:57;100211.50;;;19.43;38.18
21728;BME280;11026;50.560;17.852;2023-05-09T11:08:29;100199.56;;;19.85;38.60
21728;BME280;11026;50.560;17.852;2023-05-09T11:11:03;100201.13;;;19.64;37.29
21728;BME280;11026;50.560;17.852;2023-05-09T11:13:35;100189.22;;;20.05;40.25
21728;BME280;11026;50.560;17.852;2023-05-09T11:16:10;100190.25;;;20.15;37.46
21728;BME280;11026;50.560;17.852;2023-05-09T11:18:51;100180.25;;;19.55;37.74
21728;BME280;11026;50.560;17.852;2023-05-09T11:21:19;100187.25;;;19.45;37.72
21728;BME280;11026;50.560;17.852;2023-05-09T11:23:47;100187.22;;;19.83;37.90
21728;BME280;11026;50.560;17.852;2023-05-09T11:26:15;100178.44;;;19.17;38.23
21728;BME280;11026;50.560;17.852;2023-05-09T11:28:52;100165.44;;;18.85;38.74
21728;BME280;11026;50.560;17.852;2023-05-09T11:31:20;100171.03;;;19.08;40.53
21728;BME280;11026;50.560;17.852;2023-05-09T11:33:49;100168.53;;;20.18;39.74
21728;BME280;11026;50.560;17.852;2023-05-09T11:36:29;100156.44;;;20.60;36.71
21728;BME280;11026;50.560;17.852;2023-05-09T11:39:08;100155.94;;;20.91;36.87
21728;BME280;11026;50.560;17.852;2023-05-09T11:41:49;100163.25;;;20.88;35.78
21728;BME280;11026;50.560;17.852;2023-05-09T11:44:19;100173.56;;;20.59;36.59
21728;BME280;11026;50.560;17.852;2023-05-09T11:46:48;100167.88;;;20.86;37.26
21728;BME280;11026;50.560;17.852;2023-05-09T11:49:16;100148.66;;;21.15;37.04
21728;BME280;11026;50.560;17.852;2023-05-09T11:51:45;100149.19;;;21.54;37.13
21728;BME280;11026;50.560;17.852;2023-05-09T11:54:13;100156.94;;;20.18;35.67
21728;BME280;11026;50.560;17.852;2023-05-09T11:56:41;100155.13;;;19.81;37.28
21728;BME280;11026;50.560;17.852;2023-05-09T11:59:10;100150.66;;;19.56;37.06
21728;BME280;11026;50.560;17.852;2023-05-09T12:01:40;100156.19;;;19.79;36.42
21728;BME280;11026;50.560;17.852;2023-05-09T12:04:10;100157.81;;;19.56;36.61
21728;BME280;11026;50.560;17.852;2023-05-09T12:06:38;100157.41;;;19.11;37.31
21728;BME280;11026;50.560;17.852;2023-05-09T12:09:08;100152.44;;;18.52;38.30
21728;BME280;11026;50.560;17.852;2023-05-09T12:11:37;100151.09;;;19.25;37.62
21728;BME280;11026;50.560;17.852;2023-05-09T12:14:04;100134.63;;;18.38;38.48
21728;BME280;11026;50.560;17.852;2023-05-09T12:16:31;100139.97;;;17.84;40.42
21728;BME280;11026;50.560;17.852;2023-05-09T12:19:00;100135.72;;;18.49;40.26
21728;BME280;11026;50.560;17.852;2023-05-09T12:21:27;100135.81;;;18.74;39.83
21728;BME280;11026;50.560;17.852;2023-05-09T12:23:55;100118.13;;;19.98;39.60
21728;BME280;11026;50.560;17.852;2023-05-09T12:26:23;100122.22;;;21.09;37.59
21728;BME280;11026;50.560;17.852;2023-05-09T12:28:51;100109.97;;;21.95;35.23
21728;BME280;11026;50.560;17.852;2023-05-09T12:31:19;100111.78;;;22.17;34.33
21728;BME280;11026;50.560;17.852;2023-05-09T12:33:47;100119.53;;;21.88;34.50
21728;BME280;11026;50.560;17.852;2023-05-09T12:36:15;100103.38;;;22.63;35.17
21728;BME280;11026;50.560;17.852;2023-05-09T12:38:55;100106.47;;;21.83;34.69
21728;BME280;11026;50.560;17.852;2023-05-09T12:41:22;100108.41;;;21.13;35.06
21728;BME280;11026;50.560;17.852;2023-05-09T12:43:54;100099.38;;;20.57;35.95
21728;BME280;11026;50.560;17.852;2023-05-09T12:46:22;100103.13;;;20.90;35.87
21728;BME280;11026;50.560;17.852;2023-05-09T12:48:51;100090.22;;;21.51;36.39
21728;BME280;11026;50.560;17.852;2023-05-09T12:51:20;100091.50;;;20.89;35.31
21728;BME280;11026;50.560;17.852;2023-05-09T12:53:48;100085.47;;;20.04;36.41
21728;BME280;11026;50.560;17.852;2023-05-09T12:56:17;100084.63;;;19.90;38.32
21728;BME280;11026;50.560;17.852;2023-05-09T12:58:50;100076.97;;;19.73;36.85
21728;BME280;11026;50.560;17.852;2023-05-09T13:01:19;100070.91;;;20.30;37.54
21728;BME280;11026;50.560;17.852;2023-05-09T13:03:59;100067.56;;;21.08;36.48
21728;BME280;11026;50.560;17.852;2023-05-09T13:06:27;100063.00;;;20.64;36.13